Time;durP1;ratioP1;P1;durP2;ratioP2;P2;SDS_P1;SDS_P2;PMS_P1;PMS_P2;Temp;Humidity;BMP_temperature;BMP_pressure;BME280_temperature;BME280_humidity;BME280_pressure;Samples;Min_cycle;Max_cycle;Signal;HPM_P1;HPM_P2
2023/05/27 00:01:50;;;;;;;19.52;4.65;;;10.00;99.90;;;;;;4935970;29;20246;-79
2023/05/27 00:04:17;;;;;;;22.80;5.43;;;10.00;99.90;;;;;;4927119;29;20727;-80
2023/05/27 00:06:43;;;;;;;24.63;6.07;;;10.00;99.90;;;;;;4935818;29;20239;-79
2023/05/27 00:09:09;;;;;;;16.50;4.53;;;10.00;99.90;;;;;;4920797;29;20206;-80
2023/05/27 00:11:35;;;;;;;23.75;5.68;;;10.00;99.90;;;;;;4936149;29;20182;-79
2023/05/27 00:14:01;;;;;;;17.40;5.28;;;10.00;99.90;;;;;;4936947;29;20616;-79
2023/05/27 00:16:27;;;;;;;18.65;4.90;;;10.00;99.90;;;;;;4919956;29;20195;-80
2023/05/27 00:18:53;;;;;;;23.00;4.85;;;9.90;99.90;;;;;;4919653;29;20215;-79
2023/05/27 00:21:19;;;;;;;23.15;5.20;;;9.90;99.90;;;;;;4937211;29;20192;-80
2023/05/27 00:23:46;;;;;;;16.75;4.97;;;9.90;99.90;;;;;;4926298;29;20212;-81
2023/05/27 00:26:12;;;;;;;23.27;5.28;;;9.90;99.90;;;;;;4935348;29;20235;-80
2023/05/27 00:28:38;;;;;;;21.17;5.63;;;9.80;99.90;;;;;;4934709;29;20241;-80
2023/05/27 00:31:04;;;;;;;20.60;5.18;;;9.80;99.90;;;;;;4937340;29;20191;-82
2023/05/27 00:33:29;;;;;;;20.02;5.25;;;9.80;99.90;;;;;;4929484;29;20191;-80
2023/05/27 00:35:55;;;;;;;23.52;6.40;;;9.80;99.90;;;;;;4914524;29;20219;-80
2023/05/27 00:38:21;;;;;;;24.80;5.45;;;9.80;99.90;;;;;;4952081;29;20286;-81
2023/05/27 00:40:49;;;;;;;31.00;6.28;;;9.80;99.90;;;;;;4937129;29;20195;-80
2023/05/27 00:43:15;;;;;;;24.33;5.55;;;9.80;99.90;;;;;;4936829;29;20187;-80
2023/05/27 00:45:41;;;;;;;23.35;6.35;;;9.80;99.90;;;;;;4932895;29;20215;-80
2023/05/27 00:48:07;;;;;;;21.60;5.60;;;9.80;99.90;;;;;;4938758;29;20627;-81
2023/05/27 00:50:32;;;;;;;23.67;5.50;;;9.70;99.90;;;;;;4934217;29;20188;-80
2023/05/27 00:52:59;;;;;;;19.67;5.88;;;9.70;99.90;;;;;;4942734;29;20211;-78
2023/05/27 00:55:25;;;;;;;24.23;5.85;;;9.80;99.90;;;;;;4940631;29;20199;-79
2023/05/27 00:57:54;;;;;;;23.13;5.78;;;9.80;99.90;;;;;;4921805;29;20196;-79
2023/05/27 01:00:20;;;;;;;21.17;5.88;;;9.80;99.90;;;;;;4922829;29;20192;-79
2023/05/27 01:02:47;;;;;;;23.77;5.13;;;9.70;99.90;;;;;;4953862;29;20187;-79
2023/05/27 01:05:16;;;;;;;24.65;5.82;;;9.70;99.90;;;;;;4930860;29;20187;-78
2023/05/27 01:08:05;;;;;;;22.73;5.82;;;9.70;99.90;;;;;;4927648;29;20300;-78
2023/05/27 01:10:53;;;;;;;22.27;6.00;;;9.70;99.90;;;;;;4946633;29;20515;-79
2023/05/27 01:13:46;;;;;;;16.20;5.10;;;9.60;99.90;;;;;;4913553;29;20264;-79
2023/05/27 01:16:14;;;;;;;17.98;5.53;;;9.60;99.90;;;;;;4929026;29;20608;-79
2023/05/27 01:18:44;;;;;;;22.25;5.63;;;9.60;99.90;;;;;;4935308;29;20231;-79
2023/05/27 01:21:14;;;;;;;22.92;5.43;;;9.60;99.90;;;;;;4936243;29;20270;-80
2023/05/27 01:23:46;;;;;;;22.55;5.95;;;9.50;99.90;;;;;;4943512;29;20282;-80
2023/05/27 01:26:12;;;;;;;21.88;5.55;;;9.50;99.90;;;;;;4935529;29;20191;-79
2023/05/27 01:28:38;;;;;;;18.95;5.28;;;9.50;99.90;;;;;;4935095;29;20206;-83
2023/05/27 01:31:11;;;;;;;20.48;5.95;;;9.50;99.90;;;;;;4931253;29;20207;-80
2023/05/27 01:33:39;;;;;;;24.60;5.75;;;9.50;99.90;;;;;;4936501;29;20179;-80
2023/05/27 01:36:13;;;;;;;27.58;5.32;;;9.50;99.90;;;;;;4934863;29;20560;-80
2023/05/27 01:38:42;;;;;;;24.40;6.18;;;9.50;99.90;;;;;;4933477;29;20266;-79
2023/05/27 01:41:09;;;;;;;20.73;6.13;;;9.50;99.90;;;;;;4949628;29;20187;-80
2023/05/27 01:43:38;;;;;;;27.67;6.05;;;9.50;99.90;;;;;;4933743;29;20625;-79
2023/05/27 01:46:04;;;;;;;18.10;5.30;;;9.50;99.90;;;;;;4915002;29;20215;-80
2023/05/27 01:48:30;;;;;;;22.92;5.43;;;9.50;99.90;;;;;;4942166;29;20197;-80
2023/05/27 01:50:56;;;;;;;25.02;5.32;;;9.50;99.90;;;;;;4927256;29;20386;-79
2023/05/27 01:53:22;;;;;;;25.13;5.72;;;9.50;99.90;;;;;;4933590;29;20526;-80
2023/05/27 01:55:48;;;;;;;18.92;5.30;;;9.50;99.90;;;;;;4935575;29;20662;-79
2023/05/27 01:58:14;;;;;;;24.02;5.35;;;9.50;99.90;;;;;;4918171;29;20183;-80
2023/05/27 02:00:40;;;;;;;20.88;5.32;;;9.50;99.90;;;;;;4918597;29;20238;-79
2023/05/27 02:03:06;;;;;;;22.35;5.25;;;9.50;99.90;;;;;;4931088;29;20647;-79
2023/05/27 02:05:32;;;;;;;23.90;5.35;;;9.60;99.90;;;;;;4927334;29;20226;-78
2023/05/27 02:07:58;;;;;;;27.90;6.40;;;9.50;99.90;;;;;;4933805;29;20447;-78
2023/05/27 02:10:25;;;;;;;19.20;5.25;;;9.50;99.90;;;;;;4933015;29;20753;-79
2023/05/27 02:12:52;;;;;;;23.20;5.50;;;9.50;99.90;;;;;;4934385;29;20197;-78
2023/05/27 02:15:18;;;;;;;24.10;5.85;;;9.50;99.90;;;;;;4917093;29;20204;-79
2023/05/27 02:17:46;;;;;;;15.65;5.05;;;9.50;99.90;;;;;;4913997;29;20256;-79
2023/05/27 02:20:12;;;;;;;26.92;5.45;;;9.50;99.90;;;;;;4916936;29;20295;-79
2023/05/27 02:22:38;;;;;;;30.38;5.22;;;9.50;99.90;;;;;;4911217;29;20191;-79
2023/05/27 02:25:04;;;;;;;25.55;5.15;;;9.50;99.90;;;;;;4918841;29;20266;-83
2023/05/27 02:27:30;;;;;;;25.15;5.82;;;9.50;99.90;;;;;;4918995;29;20211;-79
2023/05/27 02:29:56;;;;;;;19.48;4.97;;;9.50;99.90;;;;;;4903658;29;20510;-80
2023/05/27 02:32:22;;;;;;;21.48;5.20;;;9.50;99.90;;;;;;4934788;29;20301;-79
2023/05/27 02:34:47;;;;;;;22.08;5.45;;;9.50;99.90;;;;;;4935727;29;20278;-79
2023/05/27 02:37:13;;;;;;;24.77;5.00;;;9.50;99.90;;;;;;4927994;29;20596;-80
2023/05/27 02:39:40;;;;;;;23.88;5.18;;;9.50;99.90;;;;;;4915310;29;20720;-79
2023/05/27 02:42:06;;;;;;;23.73;5.75;;;9.50;99.90;;;;;;4931114;29;20187;-80
2023/05/27 02:44:32;;;;;;;27.73;5.60;;;9.50;99.90;;;;;;4903855;29;20602;-79
2023/05/27 02:46:58;;;;;;;25.83;5.22;;;9.60;99.90;;;;;;4901808;29;20226;-79
2023/05/27 02:49:24;;;;;;;26.10;5.47;;;9.60;99.90;;;;;;4916923;29;20191;-80
2023/05/27 02:51:50;;;;;;;24.58;5.68;;;9.60;99.90;;;;;;4932616;29;20206;-79
2023/05/27 02:54:16;;;;;;;21.05;5.45;;;9.60;99.90;;;;;;4943272;29;20598;-79
2023/05/27 02:56:42;;;;;;;27.75;5.95;;;9.60;99.90;;;;;;4917220;29;20194;-79
2023/05/27 02:59:08;;;;;;;22.50;5.45;;;9.70;99.90;;;;;;4885953;29;20744;-80
2023/05/27 03:01:34;;;;;;;20.60;5.55;;;9.60;99.90;;;;;;4918120;29;20555;-79
2023/05/27 03:03:59;;;;;;;24.65;5.35;;;9.70;99.90;;;;;;4933278;29;20550;-79
2023/05/27 03:06:25;;;;;;;28.55;5.68;;;9.70;99.90;;;;;;4934879;29;20539;-79
2023/05/27 03:08:51;;;;;;;21.65;5.10;;;9.70;99.90;;;;;;4933407;29;20210;-80
2023/05/27 03:11:17;;;;;;;26.13;5.78;;;9.70;99.90;;;;;;4932910;29;20656;-79
2023/05/27 03:13:42;;;;;;;24.08;5.07;;;9.80;99.90;;;;;;4933525;29;20617;-79
2023/05/27 03:16:08;;;;;;;25.95;5.93;;;9.80;99.90;;;;;;4908573;29;20200;-79
2023/05/27 03:18:34;;;;;;;22.17;5.20;;;9.80;99.90;;;;;;4933135;29;20203;-79
2023/05/27 03:21:01;;;;;;;22.42;5.38;;;9.80;99.90;;;;;;4932313;29;20187;-82
2023/05/27 03:23:27;;;;;;;23.05;5.43;;;9.80;99.90;;;;;;4933069;29;20223;-79
2023/05/27 03:25:53;;;;;;;25.60;5.40;;;9.80;99.90;;;;;;4935891;29;20618;-79
2023/05/27 03:28:19;;;;;;;27.60;5.43;;;9.90;99.90;;;;;;4934289;29;20276;-79
2023/05/27 03:30:44;;;;;;;20.15;5.03;;;9.90;99.90;;;;;;4919223;29;20203;-79
2023/05/27 03:33:23;;;;;;;23.50;5.32;;;9.80;99.90;;;;;;4934280;29;20254;-80
2023/05/27 03:35:49;;;;;;;22.60;5.82;;;9.90;99.90;;;;;;4934972;29;20191;-81
2023/05/27 03:38:16;;;;;;;25.75;5.50;;;9.90;99.90;;;;;;4938489;29;20209;-79
2023/05/27 03:40:41;;;;;;;23.83;5.75;;;9.90;99.90;;;;;;4933592;29;20525;-79
2023/05/27 03:43:08;;;;;;;24.75;5.15;;;9.90;99.90;;;;;;4890097;29;20199;-80
2023/05/27 03:45:35;;;;;;;26.85;5.20;;;9.90;99.90;;;;;;4927136;29;20194;-79
2023/05/27 03:48:01;;;;;;;24.35;5.80;;;9.90;99.90;;;;;;4934098;29;20219;-79
2023/05/27 03:50:27;;;;;;;28.00;6.03;;;9.90;99.90;;;;;;4921956;29;20604;-79
2023/05/27 03:52:53;;;;;;;26.35;5.70;;;10.00;99.90;;;;;;4926574;29;20282;-80
2023/05/27 03:55:23;;;;;;;19.65;5.57;;;10.00;99.90;;;;;;4939272;28;20223;-79
2023/05/27 03:57:49;;;;;;;24.58;5.85;;;10.00;99.90;;;;;;4930360;29;20195;-81
2023/05/27 04:00:16;;;;;;;14.80;5.07;;;10.00;99.90;;;;;;4943583;29;20242;-79
2023/05/27 04:02:49;;;;;;;19.77;5.20;;;10.10;99.90;;;;;;4937925;29;20211;-79
2023/05/27 04:05:16;;;;;;;27.05;5.93;;;10.10;99.90;;;;;;4937324;29;20199;-78
2023/05/27 04:07:42;;;;;;;18.30;5.85;;;10.10;99.90;;;;;;4909638;29;20235;-79
2023/05/27 04:10:09;;;;;;;23.70;6.05;;;10.10;99.90;;;;;;4954865;29;20187;-80
2023/05/27 04:12:35;;;;;;;21.45;5.50;;;10.10;99.90;;;;;;4940745;29;20175;-79
2023/05/27 04:15:00;;;;;;;26.77;5.55;;;10.10;99.90;;;;;;4931917;29;20651;-79
2023/05/27 04:17:30;;;;;;;22.67;6.00;;;10.10;99.90;;;;;;4922311;29;20713;-79
2023/05/27 04:19:56;;;;;;;24.08;5.57;;;10.10;99.90;;;;;;4946423;29;20225;-80
2023/05/27 04:22:23;;;;;;;22.88;5.93;;;10.20;99.90;;;;;;4940153;29;20203;-80
2023/05/27 04:24:51;;;;;;;24.08;5.97;;;10.10;99.90;;;;;;4932045;29;20188;-81
2023/05/27 04:27:19;;;;;;;15.57;5.35;;;10.10;99.90;;;;;;4939117;29;20614;-79
2023/05/27 04:29:45;;;;;;;17.65;5.25;;;10.20;99.90;;;;;;4939569;29;20286;-79
2023/05/27 04:32:12;;;;;;;28.75;5.90;;;10.20;99.90;;;;;;4922620;29;20199;-80
2023/05/27 04:34:44;;;;;;;20.67;5.57;;;10.20;99.90;;;;;;4937703;29;20254;-79
2023/05/27 04:37:12;;;;;;;19.38;5.40;;;10.30;99.90;;;;;;4919786;29;20211;-80
2023/05/27 04:39:45;;;;;;;21.80;5.22;;;10.30;99.90;;;;;;4915343;29;20206;-79
2023/05/27 04:42:12;;;;;;;23.50;5.55;;;10.30;99.90;;;;;;4938154;29;20183;-79
2023/05/27 04:44:42;;;;;;;24.33;5.80;;;10.30;99.90;;;;;;4937513;29;20183;-79
2023/05/27 04:47:08;;;;;;;21.77;5.13;;;10.40;99.90;;;;;;4937350;29;20700;-80
2023/05/27 04:49:35;;;;;;;26.27;6.20;;;10.40;99.90;;;;;;4922106;29;20194;-84
2023/05/27 04:52:01;;;;;;;27.95;5.40;;;10.40;99.90;;;;;;4920902;29;20191;-79
2023/05/27 04:54:27;;;;;;;23.17;5.53;;;10.40;99.90;;;;;;4918264;29;20391;-81
2023/05/27 04:56:54;;;;;;;17.15;5.07;;;10.50;99.90;;;;;;4920420;29;20223;-80
2023/05/27 04:59:35;;;;;;;20.70;5.40;;;10.50;99.90;;;;;;4904723;29;20191;-80
2023/05/27 05:02:11;;;;;;;21.27;5.32;;;10.50;99.90;;;;;;4939047;29;20187;-80
2023/05/27 05:04:46;;;;;;;23.55;5.45;;;10.50;99.90;;;;;;4930758;29;20668;-79
2023/05/27 05:07:13;;;;;;;21.98;4.88;;;10.60;99.90;;;;;;4934508;29;20314;-80
2023/05/27 05:09:40;;;;;;;21.20;5.18;;;10.60;99.90;;;;;;4929674;29;20191;-80
2023/05/27 05:12:13;;;;;;;20.65;5.25;;;10.60;99.90;;;;;;4921410;29;20680;-82
2023/05/27 05:14:42;;;;;;;23.48;5.43;;;10.70;99.90;;;;;;4935533;29;20222;-83
2023/05/27 05:17:08;;;;;;;18.17;5.10;;;10.70;99.90;;;;;;4904781;29;20520;-84
2023/05/27 05:19:35;;;;;;;27.40;5.30;;;10.60;99.90;;;;;;4920928;29;20191;-83
2023/05/27 05:22:00;;;;;;;25.67;6.35;;;10.70;99.90;;;;;;4934636;29;20246;-84
2023/05/27 05:24:28;;;;;;;20.50;5.30;;;10.70;99.90;;;;;;4930391;29;20191;-84
2023/05/27 05:26:54;;;;;;;17.52;5.25;;;10.70;99.90;;;;;;4921187;29;20235;-83
2023/05/27 05:29:20;;;;;;;27.27;5.38;;;10.70;99.90;;;;;;4919497;29;20191;-83
2023/05/27 05:31:45;;;;;;;20.83;5.40;;;10.70;99.90;;;;;;4907449;29;20198;-83
2023/05/27 05:34:13;;;;;;;24.48;5.45;;;10.70;99.90;;;;;;4934293;29;20195;-83
2023/05/27 05:36:38;;;;;;;22.17;5.35;;;10.80;99.90;;;;;;4935994;29;20693;-81
2023/05/27 05:39:08;;;;;;;28.55;5.82;;;10.80;99.90;;;;;;4936076;29;20242;-83
2023/05/27 05:41:38;;;;;;;21.60;5.47;;;10.80;99.90;;;;;;4914686;29;20286;-82
2023/05/27 05:44:04;;;;;;;22.38;5.65;;;10.90;99.90;;;;;;4930004;28;20229;-84
2023/05/27 05:46:30;;;;;;;24.73;6.07;;;10.90;99.90;;;;;;4936883;29;20271;-83
2023/05/27 05:48:57;;;;;;;25.73;5.75;;;10.90;99.90;;;;;;4919947;29;20642;-82
2023/05/27 05:51:33;;;;;;;20.20;5.75;;;11.00;99.90;;;;;;4918417;29;20318;-90
2023/05/27 05:53:59;;;;;;;27.20;5.47;;;11.00;99.90;;;;;;4931708;29;20724;-83
2023/05/27 05:56:26;;;;;;;22.38;5.55;;;11.00;99.90;;;;;;4919152;29;20238;-83
2023/05/27 05:58:52;;;;;;;23.23;5.53;;;11.10;99.90;;;;;;4935105;29;20195;-80
2023/05/27 06:01:18;;;;;;;25.75;6.15;;;11.10;99.90;;;;;;4934996;29;20369;-84
2023/05/27 06:03:44;;;;;;;24.95;5.32;;;11.20;99.90;;;;;;4926451;29;20210;-84
2023/05/27 06:06:22;;;;;;;29.38;5.30;;;11.30;99.90;;;;;;4951296;29;20237;-82
2023/05/27 06:09:07;;;;;;;26.80;5.22;;;11.30;99.90;;;;;;4917135;29;20188;-82
2023/05/27 06:11:34;;;;;;;23.02;5.93;;;11.30;99.90;;;;;;4917013;29;20196;-81
2023/05/27 06:14:00;;;;;;;24.73;5.75;;;11.50;99.90;;;;;;4918499;29;20191;-81
2023/05/27 06:16:28;;;;;;;22.13;5.20;;;11.50;99.90;;;;;;4921893;29;20171;-92
2023/05/27 06:18:54;;;;;;;23.85;5.40;;;11.60;99.90;;;;;;4922106;29;20180;-81
2023/05/27 06:21:20;;;;;;;22.08;5.78;;;11.70;99.90;;;;;;4919249;29;20644;-80
2023/05/27 06:24:15;;;;;;;23.75;5.70;;;11.70;99.90;;;;;;4934767;29;20278;-85
2023/05/27 06:26:44;;;;;;;22.42;5.70;;;11.80;99.90;;;;;;4914337;29;20223;-81
2023/05/27 06:29:11;;;;;;;28.48;6.05;;;11.90;99.90;;;;;;4918586;29;20294;-82
2023/05/27 06:31:37;;;;;;;28.92;5.53;;;12.00;99.90;;;;;;4948991;29;20199;-80
2023/05/27 06:34:03;;;;;;;22.88;5.25;;;12.10;99.90;;;;;;4930716;29;20227;-81
2023/05/27 06:36:30;;;;;;;25.40;5.68;;;12.20;99.90;;;;;;4915763;29;20195;-80
2023/05/27 06:38:57;;;;;;;28.35;5.40;;;12.20;99.90;;;;;;4929631;29;20183;-81
2023/05/27 06:41:23;;;;;;;23.83;5.82;;;12.20;99.90;;;;;;4908486;29;20195;-82
2023/05/27 06:44:09;;;;;;;22.55;5.90;;;12.30;99.90;;;;;;4917171;29;20204;-81
2023/05/27 06:46:41;;;;;;;27.67;6.10;;;12.40;99.90;;;;;;4901757;29;20226;-81
2023/05/27 06:49:14;;;;;;;23.27;5.65;;;12.40;99.90;;;;;;4921309;29;20256;-81
2023/05/27 06:51:40;;;;;;;26.15;5.75;;;12.50;99.90;;;;;;4904270;29;20206;-81
2023/05/27 06:54:06;;;;;;;22.63;5.53;;;12.60;99.90;;;;;;4903629;29;20646;-81
2023/05/27 06:56:38;;;;;;;22.80;5.13;;;12.70;99.90;;;;;;4926340;29;20634;-82
2023/05/27 06:59:13;;;;;;;31.85;5.60;;;12.70;99.90;;;;;;4935246;29;20226;-81
2023/05/27 07:01:39;;;;;;;19.40;5.22;;;12.80;99.90;;;;;;4933820;29;20629;-81
2023/05/27 07:04:08;;;;;;;23.77;5.43;;;12.90;99.90;;;;;;4916919;29;20187;-81
2023/05/27 07:06:45;;;;;;;29.10;6.13;;;13.00;99.90;;;;;;4918871;29;20577;-86
2023/05/27 07:09:12;;;;;;;26.83;5.97;;;13.00;99.90;;;;;;4918029;29;20198;-82
2023/05/27 07:11:38;;;;;;;21.83;5.53;;;13.10;99.90;;;;;;4923914;29;20220;-81
2023/05/27 07:14:10;;;;;;;24.90;5.57;;;13.20;99.90;;;;;;4934055;29;20622;-82
2023/05/27 07:16:36;;;;;;;25.65;5.80;;;13.30;99.90;;;;;;4946846;29;20301;-81
2023/05/27 07:19:03;;;;;;;25.05;5.93;;;13.40;99.90;;;;;;4921844;29;20633;-81
2023/05/27 07:21:33;;;;;;;31.27;6.38;;;13.40;99.90;;;;;;4914680;29;20281;-81
2023/05/27 07:24:04;;;;;;;27.73;5.90;;;13.50;99.90;;;;;;4921611;29;20197;-81
2023/05/27 07:26:32;;;;;;;23.98;5.80;;;13.60;99.90;;;;;;4921809;29;20728;-81
2023/05/27 07:29:00;;;;;;;25.55;6.75;;;13.70;99.90;;;;;;4917944;29;20199;-80
2023/05/27 07:31:46;;;;;;;30.02;6.22;;;13.80;99.90;;;;;;4931675;29;20190;-80
2023/05/27 07:34:14;;;;;;;21.20;5.80;;;13.80;99.90;;;;;;4937749;29;20495;-82
2023/05/27 07:36:39;;;;;;;24.17;5.22;;;13.90;99.90;;;;;;4920805;29;20270;-82
2023/05/27 07:39:05;;;;;;;26.23;5.60;;;14.00;99.90;;;;;;4907567;29;20191;-80
2023/05/27 07:41:32;;;;;;;20.15;5.35;;;14.10;99.90;;;;;;4939549;29;20321;-81
2023/05/27 07:43:59;;;;;;;23.77;5.65;;;14.20;99.90;;;;;;4922017;29;20627;-83
2023/05/27 07:46:25;;;;;;;25.38;6.13;;;14.20;99.90;;;;;;4937165;29;20233;-82
2023/05/27 07:48:51;;;;;;;22.27;5.70;;;14.30;99.90;;;;;;4936840;29;20262;-81
2023/05/27 07:51:17;;;;;;;21.10;5.90;;;14.50;99.90;;;;;;4936640;29;20198;-82
2023/05/27 07:53:43;;;;;;;21.63;5.45;;;14.60;99.90;;;;;;4918306;29;20267;-82
2023/05/27 07:56:09;;;;;;;22.25;6.15;;;14.70;99.90;;;;;;4921158;29;20196;-82
2023/05/27 07:58:34;;;;;;;25.00;5.25;;;14.80;99.90;;;;;;4921394;29;20188;-82
2023/05/27 08:01:06;;;;;;;22.95;5.78;;;14.80;99.90;;;;;;4938050;29;20179;-82
2023/05/27 08:03:32;;;;;;;20.38;5.88;;;14.90;99.90;;;;;;4922120;29;20282;-82
2023/05/27 08:06:20;;;;;;;25.60;5.60;;;15.00;99.90;;;;;;4938576;29;20235;-84
2023/05/27 08:09:16;;;;;;;18.73;5.05;;;15.20;99.90;;;;;;4938850;29;20634;-82
2023/05/27 08:12:02;;;;;;;19.67;5.18;;;15.30;99.90;;;;;;4938872;29;20601;-81
2023/05/27 08:14:40;;;;;;;26.17;5.82;;;15.40;99.90;;;;;;4923088;29;20171;-83
2023/05/27 08:17:21;;;;;;;28.77;5.45;;;15.40;99.90;;;;;;4937265;29;20203;-83
2023/05/27 08:20:10;;;;;;;21.05;5.22;;;15.40;99.90;;;;;;4924649;29;20195;-82
2023/05/27 08:22:55;;;;;;;29.48;6.38;;;15.50;99.90;;;;;;4937290;29;20186;-82
2023/05/27 08:25:39;;;;;;;19.52;5.95;;;15.60;99.90;;;;;;4937233;29;20265;-82
2023/05/27 08:28:23;;;;;;;17.23;5.45;;;15.70;99.90;;;;;;4910517;29;20210;-83
2023/05/27 08:31:00;;;;;;;23.83;5.68;;;15.80;99.90;;;;;;4922946;29;20278;-82
2023/05/27 08:33:41;;;;;;;28.23;6.00;;;15.90;99.90;;;;;;4896459;29;20202;-82
2023/05/27 08:36:08;;;;;;;21.05;5.47;;;16.00;99.90;;;;;;4921836;29;20238;-81
2023/05/27 08:38:34;;;;;;;24.70;6.07;;;16.10;99.90;;;;;;4906338;29;20289;-82
2023/05/27 08:41:27;;;;;;;22.48;5.50;;;16.10;99.90;;;;;;4938582;28;20539;-82
2023/05/27 08:43:54;;;;;;;23.83;5.93;;;16.20;99.90;;;;;;4937375;29;20226;-83
2023/05/27 08:46:21;;;;;;;22.30;5.95;;;16.20;99.90;;;;;;4921540;29;20190;-82
2023/05/27 08:48:49;;;;;;;19.77;5.70;;;16.30;99.90;;;;;;4937593;29;20222;-83
2023/05/27 08:51:18;;;;;;;21.15;5.32;;;16.40;99.90;;;;;;4920709;29;20201;-82
2023/05/27 08:53:46;;;;;;;21.23;5.32;;;16.50;99.90;;;;;;4921008;29;20198;-82
2023/05/27 08:56:15;;;;;;;27.77;7.50;;;16.60;99.90;;;;;;4920671;29;20226;-82
2023/05/27 08:58:44;;;;;;;26.83;6.28;;;16.80;99.90;;;;;;4920870;29;20291;-82
2023/05/27 09:01:10;;;;;;;16.05;5.90;;;17.00;99.90;;;;;;4920771;29;20238;-82
2023/05/27 09:03:37;;;;;;;20.85;5.68;;;17.10;99.90;;;;;;4917619;29;20600;-82
2023/05/27 09:06:04;;;;;;;21.80;5.32;;;17.20;99.90;;;;;;4933747;29;20234;-82
2023/05/27 09:08:33;;;;;;;19.88;5.15;;;17.20;99.90;;;;;;4936347;29;20243;-83
2023/05/27 09:10:59;;;;;;;24.70;6.13;;;17.30;99.90;;;;;;4920579;29;20234;-82
2023/05/27 09:13:31;;;;;;;19.05;5.50;;;17.40;99.90;;;;;;4936141;29;20187;-81
2023/05/27 09:16:02;;;;;;;21.15;5.40;;;17.40;99.90;;;;;;4935746;29;20185;-83
2023/05/27 09:18:30;;;;;;;20.70;5.20;;;17.40;99.90;;;;;;4935697;29;20591;-82
2023/05/27 09:20:56;;;;;;;22.85;5.53;;;17.50;99.90;;;;;;4937624;29;20199;-82
2023/05/27 09:23:22;;;;;;;23.67;7.30;;;17.50;99.90;;;;;;4936731;29;20277;-83
2023/05/27 09:25:49;;;;;;;24.85;5.53;;;17.60;99.90;;;;;;4921010;29;20235;-83
2023/05/27 09:28:25;;;;;;;20.40;5.90;;;17.70;99.90;;;;;;4937221;29;20240;-82
2023/05/27 09:31:00;;;;;;;22.17;5.03;;;17.80;99.90;;;;;;4936215;29;20269;-81
2023/05/27 09:33:32;;;;;;;14.98;4.88;;;17.80;99.90;;;;;;4937531;29;20199;-83
2023/05/27 09:35:59;;;;;;;20.17;5.32;;;17.90;99.90;;;;;;4904380;29;20183;-82
2023/05/27 09:38:28;;;;;;;20.98;5.53;;;18.00;99.90;;;;;;4937041;29;20183;-82
2023/05/27 09:40:54;;;;;;;20.08;5.78;;;18.00;99.90;;;;;;4935199;29;20212;-80
2023/05/27 09:43:20;;;;;;;16.85;5.25;;;18.00;99.90;;;;;;4935347;29;20187;-81
2023/05/27 09:45:46;;;;;;;19.33;5.25;;;17.90;99.90;;;;;;4919564;29;20191;-80
2023/05/27 09:48:14;;;;;;;19.27;5.15;;;18.00;99.90;;;;;;4936819;29;20309;-82
2023/05/27 09:50:41;;;;;;;14.85;4.93;;;18.00;99.90;;;;;;4935102;29;20191;-81
2023/05/27 09:53:08;;;;;;;23.40;4.75;;;18.10;99.90;;;;;;4936360;29;20353;-81
2023/05/27 09:55:34;;;;;;;26.20;5.65;;;18.20;99.90;;;;;;4935587;29;20179;-82
2023/05/27 09:58:01;;;;;;;21.15;6.13;;;18.20;99.90;;;;;;4935718;29;20330;-81
2023/05/27 10:00:28;;;;;;;18.20;6.20;;;18.20;99.90;;;;;;4950629;29;20175;-80
2023/05/27 10:02:57;;;;;;;18.90;5.85;;;18.30;99.90;;;;;;4934841;29;20183;-81
2023/05/27 10:05:23;;;;;;;18.00;5.38;;;18.40;99.90;;;;;;4918613;29;20187;-80
2023/05/27 10:07:49;;;;;;;22.90;5.80;;;18.60;99.90;;;;;;4901380;29;20211;-83
2023/05/27 10:10:18;;;;;;;26.92;5.80;;;18.70;99.90;;;;;;4916121;29;20267;-82
2023/05/27 10:12:46;;;;;;;19.17;5.85;;;18.70;99.90;;;;;;4915685;29;20187;-82
2023/05/27 10:15:28;;;;;;;23.60;5.88;;;18.60;99.90;;;;;;4931532;29;20194;-82
2023/05/27 10:17:59;;;;;;;22.40;5.85;;;18.70;99.90;;;;;;4931438;29;20180;-82
2023/05/27 10:20:33;;;;;;;21.38;5.78;;;18.80;99.90;;;;;;4916795;29;20263;-81
2023/05/27 10:23:21;;;;;;;21.65;6.00;;;18.90;99.90;;;;;;4931886;29;20575;-81
2023/05/27 10:25:52;;;;;;;24.48;6.47;;;18.90;99.90;;;;;;4915532;29;20191;-82
2023/05/27 10:28:29;;;;;;;17.58;6.00;;;18.90;99.70;;;;;;4931017;29;20238;-82
2023/05/27 10:31:11;;;;;;;24.55;6.55;;;18.90;99.50;;;;;;4915395;29;20243;-82
2023/05/27 10:33:39;;;;;;;20.98;6.05;;;18.90;99.40;;;;;;4915615;29;20656;-82
2023/05/27 10:36:08;;;;;;;18.40;6.10;;;18.90;99.40;;;;;;4932017;29;20172;-82
2023/05/27 10:38:35;;;;;;;25.73;5.70;;;18.90;99.40;;;;;;4934257;29;20179;-86
2023/05/27 10:41:04;;;;;;;19.20;5.35;;;19.00;99.00;;;;;;4931014;29;20536;-83
2023/05/27 10:43:31;;;;;;;23.13;6.10;;;19.00;98.80;;;;;;4930812;29;20208;-82
2023/05/27 10:46:06;;;;;;;18.73;5.75;;;19.10;98.50;;;;;;4914988;29;20215;-80
2023/05/27 10:48:33;;;;;;;20.80;6.28;;;19.20;98.40;;;;;;4932106;29;20217;-81
2023/05/27 10:51:00;;;;;;;24.30;6.20;;;19.30;98.10;;;;;;4918327;29;20195;-81
2023/05/27 10:53:27;;;;;;;14.98;5.20;;;19.40;97.50;;;;;;4934432;29;20263;-81
2023/05/27 10:55:53;;;;;;;17.60;5.68;;;19.50;97.20;;;;;;4949460;29;20626;-80
2023/05/27 10:58:20;;;;;;;17.20;5.90;;;19.50;96.80;;;;;;4918333;29;20195;-79
2023/05/27 11:01:10;;;;;;;20.85;6.18;;;19.50;96.60;;;;;;4934043;29;20187;-80
2023/05/27 11:03:43;;;;;;;21.08;6.03;;;19.50;96.60;;;;;;4934268;29;20211;-79
2023/05/27 11:06:11;;;;;;;16.45;6.05;;;19.50;96.70;;;;;;4934124;29;20371;-79
2023/05/27 11:08:37;;;;;;;23.63;6.47;;;19.60;96.70;;;;;;4933926;29;20222;-79
2023/05/27 11:11:07;;;;;;;17.17;5.47;;;19.60;96.40;;;;;;4919317;29;20305;-79
2023/05/27 11:13:40;;;;;;;22.17;6.60;;;19.50;96.30;;;;;;4934381;29;20182;-81
2023/05/27 11:16:07;;;;;;;18.52;5.93;;;19.60;96.20;;;;;;4933979;29;20576;-81
2023/05/27 11:18:41;;;;;;;19.90;5.78;;;19.60;96.10;;;;;;4934100;29;20553;-78
2023/05/27 11:21:09;;;;;;;21.52;6.15;;;19.60;95.80;;;;;;4933443;29;20606;-79
2023/05/27 11:23:39;;;;;;;17.27;5.97;;;19.70;95.70;;;;;;4921001;29;20183;-79
2023/05/27 11:26:12;;;;;;;20.25;6.05;;;19.70;95.60;;;;;;4935287;29;20218;-80
2023/05/27 11:28:44;;;;;;;18.83;6.18;;;19.60;95.70;;;;;;4916894;29;20219;-81
2023/05/27 11:31:10;;;;;;;14.95;5.28;;;19.60;95.80;;;;;;4920611;29;20180;-78
2023/05/27 11:33:42;;;;;;;22.00;6.32;;;19.60;95.90;;;;;;4925550;29;20214;-76
2023/05/27 11:36:11;;;;;;;20.23;5.72;;;19.80;96.00;;;;;;4937498;29;20555;-77
2023/05/27 11:38:50;;;;;;;18.85;5.90;;;20.00;95.90;;;;;;4915857;29;20343;-82
2023/05/27 11:41:17;;;;;;;17.05;5.53;;;20.10;95.40;;;;;;4914429;29;20263;-83
2023/05/27 11:43:49;;;;;;;19.20;6.20;;;20.10;95.10;;;;;;4915326;29;20660;-82
2023/05/27 11:46:15;;;;;;;18.25;5.72;;;20.20;95.10;;;;;;4928878;29;20275;-81
2023/05/27 11:48:42;;;;;;;18.98;6.15;;;20.40;95.00;;;;;;4916305;29;20234;-82
2023/05/27 11:51:08;;;;;;;20.63;6.10;;;20.50;94.50;;;;;;4933243;29;20190;-82
2023/05/27 11:53:38;;;;;;;19.33;5.55;;;20.70;94.20;;;;;;4909716;29;20271;-82
2023/05/27 11:56:04;;;;;;;18.42;5.90;;;20.80;93.90;;;;;;4933185;29;20218;-82
2023/05/27 11:58:30;;;;;;;18.83;5.90;;;21.00;93.50;;;;;;4953020;29;20271;-83
2023/05/27 12:00:56;;;;;;;18.83;5.55;;;21.10;93.40;;;;;;4936879;29;20213;-82
2023/05/27 12:03:21;;;;;;;18.77;5.50;;;21.20;93.00;;;;;;4921094;29;20270;-82
2023/05/27 12:05:47;;;;;;;15.70;5.47;;;21.30;92.80;;;;;;4919288;29;20257;-82
2023/05/27 12:08:13;;;;;;;15.05;5.50;;;21.20;92.30;;;;;;4938364;29;20246;-82
2023/05/27 12:10:39;;;;;;;17.42;5.45;;;21.20;92.10;;;;;;4933624;29;20254;-83
2023/05/27 12:13:05;;;;;;;21.13;5.57;;;21.30;91.80;;;;;;4920397;29;20187;-82
2023/05/27 12:15:32;;;;;;;20.52;6.10;;;21.30;91.70;;;;;;4937457;29;20191;-83
2023/05/27 12:17:57;;;;;;;17.20;5.20;;;21.30;91.40;;;;;;4936264;29;20221;-84
2023/05/27 12:20:28;;;;;;;18.38;5.43;;;21.30;91.40;;;;;;4923017;29;20653;-84
2023/05/27 12:22:55;;;;;;;16.30;5.32;;;21.30;91.40;;;;;;4933912;29;20180;-82
2023/05/27 12:25:21;;;;;;;20.20;6.05;;;21.40;91.40;;;;;;4919005;29;20184;-82
2023/05/27 12:27:47;;;;;;;15.65;5.38;;;21.50;91.40;;;;;;4945695;29;20219;-83
2023/05/27 12:30:13;;;;;;;21.40;5.13;;;21.40;90.70;;;;;;4936392;29;20201;-83
2023/05/27 12:32:39;;;;;;;16.92;5.60;;;21.50;90.50;;;;;;4936774;29;20197;-82
2023/05/27 12:35:05;;;;;;;18.08;5.13;;;21.50;90.20;;;;;;4937615;29;20187;-83
2023/05/27 12:37:31;;;;;;;15.85;5.32;;;21.40;90.10;;;;;;4936733;29;20572;-83
2023/05/27 12:39:57;;;;;;;19.88;5.70;;;21.40;89.30;;;;;;4934502;29;20693;-83
2023/05/27 12:42:23;;;;;;;20.70;5.43;;;21.40;89.20;;;;;;4920382;29;20179;-82
2023/05/27 12:44:48;;;;;;;16.35;5.72;;;21.30;88.80;;;;;;4928646;29;20204;-83
2023/05/27 12:47:14;;;;;;;17.38;5.45;;;21.40;88.80;;;;;;4935434;29;20764;-83
2023/05/27 12:49:41;;;;;;;20.65;5.90;;;21.40;89.00;;;;;;4950454;29;20202;-83